createdAt,value
2017-12-27T00:00:52.062Z,5.52
2017-12-27T00:06:36.548Z,5.44
2017-12-27T00:09:09.972Z,5.47
2017-12-27T00:11:43.131Z,5.42
2017-12-27T00:14:16.695Z,5.46
2017-12-27T00:16:49.768Z,5.33
2017-12-27T00:19:22.975Z,5.38
2017-12-27T00:21:56.065Z,5.47
2017-12-27T00:24:29.459Z,5.45
2017-12-27T00:27:02.583Z,5.40
2017-12-27T00:29:35.637Z,5.42
2017-12-27T00:32:02.577Z,5.47
2017-12-27T00:34:30.072Z,5.33
2017-12-27T00:36:57.609Z,5.52
2017-12-27T00:39:25.109Z,5.45
2017-12-27T00:41:52.613Z,5.41
2017-12-27T00:44:20.173Z,5.43
2017-12-27T00:46:47.669Z,5.65
2017-12-27T00:49:15.169Z,5.49
2017-12-27T00:51:42.815Z,5.50
2017-12-27T00:54:10.321Z,5.33
2017-12-27T00:56:37.821Z,5.48
2017-12-27T00:59:05.492Z,5.35
2017-12-27T01:01:32.997Z,5.35
2017-12-27T01:04:00.488Z,5.42
2017-12-27T01:06:28.202Z,5.34
2017-12-27T01:08:55.701Z,5.49
2017-12-27T01:11:23.215Z,5.30
2017-12-27T01:13:50.779Z,5.37
2017-12-27T01:16:18.283Z,5.29
2017-12-27T01:18:45.793Z,5.53
2017-12-27T01:21:13.325Z,5.54
2017-12-27T01:23:40.823Z,5.47
2017-12-27T01:26:08.327Z,5.64
2017-12-27T01:28:35.997Z,5.51
2017-12-27T01:31:03.496Z,5.50
2017-12-27T01:33:31.004Z,5.61
2017-12-27T01:35:58.880Z,5.56
2017-12-27T01:38:26.385Z,5.55
2017-12-27T01:40:53.881Z,5.44
2017-12-27T01:43:21.407Z,5.58
2017-12-27T01:45:48.916Z,5.83
2017-12-27T01:48:16.418Z,5.77
2017-12-27T01:50:44.243Z,5.72
2017-12-27T01:53:11.741Z,5.94
2017-12-27T01:55:39.325Z,5.87
2017-12-27T01:58:07.026Z,5.98
2017-12-27T02:00:34.520Z,6.06
2017-12-27T02:03:02.013Z,6.02
2017-12-27T02:05:29.824Z,6.06
2017-12-27T02:07:57.320Z,5.94
2017-12-27T02:10:24.839Z,6.02
2017-12-27T02:12:52.360Z,6.16
2017-12-27T02:15:19.854Z,6.18
2017-12-27T02:20:29.821Z,6.04
2017-12-27T02:22:57.316Z,6.19
2017-12-27T02:25:24.836Z,6.04
2017-12-27T02:27:52.396Z,5.83
2017-12-27T02:30:19.889Z,5.79
2017-12-27T02:32:47.385Z,5.80
2017-12-27T02:35:15.145Z,5.76
2017-12-27T02:37:42.646Z,5.58
2017-12-27T02:40:26.133Z,5.50
2017-12-27T02:42:53.633Z,5.44
2017-12-27T02:45:21.128Z,5.48
2017-12-27T02:47:48.708Z,5.50
2017-12-27T02:50:16.205Z,5.33
2017-12-27T02:52:43.758Z,5.56
2017-12-27T02:55:11.440Z,5.62
2017-12-27T02:57:38.940Z,5.74
2017-12-27T03:00:06.440Z,5.72
2017-12-27T03:02:33.999Z,5.87
2017-12-27T03:05:01.536Z,6.00
2017-12-27T03:07:29.021Z,5.87
2017-12-27T03:09:56.873Z,5.66
2017-12-27T03:12:24.365Z,5.27
2017-12-27T03:14:51.863Z,5.33
2017-12-27T03:17:19.520Z,5.25
2017-12-27T03:19:47.056Z,5.45
2017-12-27T03:22:14.635Z,5.38
2017-12-27T03:24:42.156Z,5.84
2017-12-27T03:27:09.656Z,5.47
2017-12-27T03:29:37.158Z,5.38
2017-12-27T03:32:04.737Z,5.51
2017-12-27T03:34:32.259Z,5.37
2017-12-27T03:36:59.757Z,5.24
2017-12-27T03:39:28.276Z,5.52
2017-12-27T03:41:55.772Z,5.44
2017-12-27T03:44:23.315Z,5.53
2017-12-27T03:46:51.252Z,5.59
2017-12-27T03:49:18.751Z,5.53
2017-12-27T03:51:46.244Z,5.67
2017-12-27T03:54:13.788Z,5.69
2017-12-27T03:56:41.325Z,5.50
2017-12-27T03:59:08.821Z,5.58
2017-12-27T04:01:36.353Z,5.72
2017-12-27T04:04:03.852Z,5.66
2017-12-27T04:06:31.353Z,5.74
2017-12-27T04:08:58.904Z,5.96
2017-12-27T04:11:26.399Z,6.29
2017-12-27T04:13:53.897Z,6.46
2017-12-27T04:16:21.479Z,6.41
2017-12-27T04:18:48.986Z,6.66
2017-12-27T04:21:16.496Z,6.57
2017-12-27T04:23:44.084Z,6.71
2017-12-27T04:26:11.681Z,6.68
2017-12-27T04:28:39.177Z,6.64
2017-12-27T04:31:06.935Z,6.66
2017-12-27T04:33:34.433Z,6.77
2017-12-27T04:36:02.085Z,6.78
2017-12-27T04:38:29.919Z,6.83
2017-12-27T04:40:57.412Z,6.85
2017-12-27T04:43:24.913Z,6.83
2017-12-27T04:45:52.454Z,6.58
2017-12-27T04:48:19.956Z,6.73
2017-12-27T04:50:47.449Z,6.78
2017-12-27T04:53:15.346Z,6.85
2017-12-27T04:55:42.848Z,6.82
2017-12-27T04:58:10.344Z,6.76
2017-12-27T05:00:37.897Z,6.83
2017-12-27T05:03:05.392Z,6.94
2017-12-27T05:05:32.893Z,6.90
2017-12-27T05:08:00.717Z,6.90
2017-12-27T05:10:28.220Z,6.75
2017-12-27T05:12:55.717Z,6.66
2017-12-27T05:15:23.263Z,6.38
2017-12-27T05:17:50.768Z,5.78
2017-12-27T05:20:18.265Z,5.95
2017-12-27T05:22:45.924Z,5.96
2017-12-27T05:25:13.426Z,5.98
2017-12-27T05:27:40.925Z,5.96
2017-12-27T05:30:08.729Z,5.75
2017-12-27T05:32:36.228Z,5.87
2017-12-27T05:35:03.720Z,6.01
2017-12-27T05:37:31.713Z,6.06
2017-12-27T05:39:59.213Z,6.28
2017-12-27T05:42:26.722Z,6.15
2017-12-27T05:44:54.392Z,6.31
2017-12-27T05:47:21.912Z,6.08
2017-12-27T05:49:49.413Z,6.15
2017-12-27T05:52:17.268Z,6.34
2017-12-27T05:54:44.760Z,6.28
2017-12-27T05:57:12.256Z,6.46
2017-12-27T05:59:39.948Z,6.31
2017-12-27T06:02:07.469Z,6.42
2017-12-27T06:04:34.998Z,6.46
2017-12-27T06:07:02.845Z,6.12
2017-12-27T06:09:30.346Z,6.39
2017-12-27T06:11:57.841Z,6.51
2017-12-27T06:14:25.547Z,6.43
2017-12-27T06:16:53.050Z,6.50
2017-12-27T06:19:20.567Z,6.47
2017-12-27T06:21:48.125Z,6.52
2017-12-27T06:24:15.632Z,6.61
2017-12-27T06:26:43.135Z,6.75
2017-12-27T06:29:10.669Z,6.74
2017-12-27T06:31:38.189Z,6.87
2017-12-27T06:34:05.691Z,6.79
2017-12-27T06:36:33.320Z,6.87
2017-12-27T06:39:00.875Z,6.95
2017-12-27T06:41:28.384Z,6.86
2017-12-27T06:43:55.912Z,6.71
2017-12-27T06:46:23.429Z,6.69
2017-12-27T06:48:50.924Z,6.82
2017-12-27T06:51:18.545Z,6.79
2017-12-27T06:53:46.074Z,6.87
2017-12-27T06:56:13.735Z,6.87
2017-12-27T06:58:41.272Z,6.81
2017-12-27T07:01:08.794Z,6.71
2017-12-27T07:03:36.289Z,6.70
2017-12-27T07:06:03.897Z,6.89
2017-12-27T07:08:31.428Z,6.97
2017-12-27T07:10:58.960Z,7.04
2017-12-27T07:13:26.505Z,7.07
2017-12-27T07:15:54.001Z,7.21
2017-12-27T07:18:21.495Z,7.27
2017-12-27T07:20:49.044Z,7.08
2017-12-27T07:23:16.545Z,6.98
2017-12-27T07:25:44.074Z,7.07
2017-12-27T07:28:11.797Z,7.39
2017-12-27T07:30:39.297Z,7.40
2017-12-27T07:33:06.813Z,7.45
2017-12-27T07:35:34.544Z,7.29
2017-12-27T07:38:02.136Z,7.39
2017-12-27T07:40:29.633Z,7.41
2017-12-27T07:42:57.428Z,7.43
2017-12-27T07:45:24.928Z,7.44
2017-12-27T07:47:52.426Z,7.55
2017-12-27T07:50:20.312Z,7.59
2017-12-27T07:52:47.811Z,7.55
2017-12-27T07:55:15.357Z,7.55
2017-12-27T07:57:42.976Z,7.36
2017-12-27T08:00:10.477Z,7.36
2017-12-27T08:02:37.977Z,7.26
2017-12-27T08:05:05.528Z,6.99
2017-12-27T08:07:33.032Z,7.19
2017-12-27T08:10:00.538Z,7.28
2017-12-27T08:12:28.286Z,7.42
2017-12-27T08:14:55.830Z,7.51
2017-12-27T08:17:23.328Z,7.58
2017-12-27T08:19:51.022Z,7.67
2017-12-27T08:22:18.520Z,7.73
2017-12-27T08:24:46.025Z,7.47
2017-12-27T08:27:13.729Z,7.51
2017-12-27T08:29:41.225Z,7.53
2017-12-27T08:32:08.726Z,7.54
2017-12-27T08:34:36.393Z,7.49
2017-12-27T08:37:03.889Z,7.39
2017-12-27T08:39:31.421Z,7.61
2017-12-27T08:41:59.148Z,7.84
2017-12-27T08:44:26.652Z,7.63
2017-12-27T08:46:54.144Z,7.93
2017-12-27T08:49:21.668Z,7.85
2017-12-27T08:51:49.169Z,7.77
2017-12-27T08:54:16.755Z,7.87
2017-12-27T08:56:44.742Z,8.02
2017-12-27T08:59:12.237Z,8.16
2017-12-27T09:01:39.741Z,8.07
2017-12-27T09:04:07.484Z,8.44
2017-12-27T09:06:34.988Z,8.40
2017-12-27T09:09:02.489Z,7.95
2017-12-27T09:11:30.189Z,7.80
2017-12-27T09:13:57.682Z,8.20
2017-12-27T09:16:25.181Z,7.93
2017-12-27T09:18:52.793Z,8.35
2017-12-27T09:21:20.332Z,8.37
2017-12-27T09:23:47.836Z,8.29
2017-12-27T09:26:15.858Z,8.44
2017-12-27T09:28:43.357Z,8.50
2017-12-27T09:31:10.874Z,8.19
2017-12-27T09:33:38.435Z,7.91
2017-12-27T09:36:05.934Z,7.96
2017-12-27T09:38:33.433Z,7.62
2017-12-27T09:41:01.398Z,7.29
2017-12-27T09:43:28.896Z,7.72
2017-12-27T09:45:56.398Z,7.62
2017-12-27T09:48:24.165Z,7.98
2017-12-27T09:50:51.665Z,7.85
2017-12-27T09:53:19.172Z,8.10
2017-12-27T09:55:46.999Z,8.15
2017-12-27T09:58:14.537Z,8.06
2017-12-27T10:00:42.944Z,8.69
2017-12-27T10:03:10.582Z,9.10
2017-12-27T10:05:38.097Z,9.43
2017-12-27T10:08:05.589Z,9.48
2017-12-27T10:10:33.353Z,9.48
2017-12-27T10:13:00.866Z,8.96
2017-12-27T10:15:28.376Z,9.38
2017-12-27T10:17:56.109Z,9.66
2017-12-27T10:20:23.605Z,9.81
2017-12-27T10:22:51.232Z,9.80
2017-12-27T10:25:18.762Z,9.96
2017-12-27T10:27:46.265Z,10.10
2017-12-27T10:30:13.760Z,10.09
2017-12-27T10:32:41.550Z,10.15
2017-12-27T10:35:09.048Z,10.22
2017-12-27T10:37:36.555Z,10.29
2017-12-27T10:40:04.339Z,10.24
2017-12-27T10:42:31.861Z,10.24
2017-12-27T10:44:59.365Z,10.26
2017-12-27T10:47:27.118Z,9.46
2017-12-27T10:49:55.118Z,9.70
2017-12-27T10:52:22.617Z,9.63
2017-12-27T10:54:50.149Z,9.70
2017-12-27T10:57:17.649Z,9.59
2017-12-27T10:59:45.149Z,9.47
2017-12-27T11:02:13.117Z,9.39
2017-12-27T11:04:40.620Z,9.53
2017-12-27T11:07:08.116Z,9.30
2017-12-27T11:09:35.690Z,9.26
2017-12-27T11:12:03.178Z,9.40
2017-12-27T11:14:30.687Z,9.52
2017-12-27T11:16:58.474Z,9.43
2017-12-27T11:19:26.440Z,9.60
2017-12-27T11:21:53.937Z,9.57
2017-12-27T11:24:21.626Z,9.46
2017-12-27T11:26:49.125Z,9.58
2017-12-27T11:29:16.629Z,9.60
2017-12-27T11:31:44.161Z,9.86
2017-12-27T11:34:11.692Z,9.98
2017-12-27T11:36:39.192Z,9.85
2017-12-27T11:39:06.760Z,9.95
2017-12-27T11:41:34.262Z,10.13
2017-12-27T11:44:01.753Z,9.95
2017-12-27T11:46:29.282Z,9.91
2017-12-27T11:48:56.787Z,10.09
2017-12-27T11:51:24.294Z,10.15
2017-12-27T11:53:52.134Z,9.98
2017-12-27T11:56:19.640Z,10.25
2017-12-27T11:58:47.146Z,10.37
2017-12-27T12:01:14.686Z,10.39
2017-12-27T12:03:42.188Z,10.53
2017-12-27T12:06:09.690Z,10.58
2017-12-27T12:08:37.380Z,10.72
2017-12-27T12:11:04.888Z,10.74
2017-12-27T12:13:32.769Z,10.72
2017-12-27T12:16:00.303Z,10.92
2017-12-27T12:18:27.804Z,10.87
2017-12-27T12:20:55.311Z,10.96
2017-12-27T12:23:22.846Z,11.06
2017-12-27T12:25:50.344Z,10.97
2017-12-27T12:28:17.862Z,11.08
2017-12-27T12:30:45.388Z,10.84
2017-12-27T12:33:12.958Z,10.81
2017-12-27T12:35:40.468Z,10.61
2017-12-27T12:38:08.628Z,10.19
2017-12-27T12:40:36.706Z,10.47
2017-12-27T12:43:04.272Z,10.25
2017-12-27T12:45:31.841Z,10.39
2017-12-27T12:47:59.341Z,10.34
2017-12-27T12:50:26.869Z,10.46
2017-12-27T12:52:54.712Z,10.28
2017-12-27T12:55:22.212Z,10.08
2017-12-27T12:57:49.722Z,9.97
2017-12-27T13:00:17.281Z,9.81
2017-12-27T13:02:44.788Z,9.50
2017-12-27T13:05:12.318Z,9.74
2017-12-27T13:07:39.853Z,9.57
2017-12-27T13:10:07.353Z,9.29
2017-12-27T13:12:34.848Z,9.40
2017-12-27T13:15:02.488Z,9.77
2017-12-27T13:17:29.986Z,9.42
2017-12-27T13:19:57.492Z,9.50
2017-12-27T13:22:25.116Z,9.44
2017-12-27T13:24:52.667Z,9.48
2017-12-27T13:27:20.228Z,9.53
2017-12-27T13:29:47.961Z,9.67
2017-12-27T13:32:15.467Z,9.49
2017-12-27T13:34:42.977Z,9.76
2017-12-27T13:37:10.632Z,9.68
2017-12-27T13:39:39.146Z,9.12
2017-12-27T13:42:06.706Z,9.08
2017-12-27T13:44:34.439Z,9.37
2017-12-27T13:47:01.938Z,9.33
2017-12-27T13:49:29.448Z,9.72
2017-12-27T13:51:57.966Z,9.83
2017-12-27T13:54:25.465Z,9.75
2017-12-27T13:56:53.084Z,9.35
2017-12-27T13:59:20.928Z,9.46
2017-12-27T14:01:48.432Z,9.30
2017-12-27T14:04:16.057Z,9.43
2017-12-27T14:06:43.601Z,9.52
2017-12-27T14:09:11.125Z,9.64
2017-12-27T14:11:38.628Z,9.38
2017-12-27T14:14:06.282Z,9.59
2017-12-27T14:16:33.806Z,9.19
2017-12-27T14:19:01.408Z,9.13
2017-12-27T14:21:29.153Z,9.62
2017-12-27T14:23:56.746Z,9.62
2017-12-27T14:26:24.265Z,9.58
2017-12-27T14:28:51.937Z,9.64
2017-12-27T14:31:19.522Z,9.48
2017-12-27T14:33:47.041Z,9.87
2017-12-27T14:36:15.768Z,9.47
2017-12-27T14:38:43.374Z,9.44
2017-12-27T14:41:10.881Z,9.63
2017-12-27T14:43:38.702Z,9.56
2017-12-27T14:46:06.206Z,9.43
2017-12-27T14:48:33.715Z,9.58
2017-12-27T14:51:01.280Z,9.75
2017-12-27T14:53:28.786Z,9.40
2017-12-27T14:55:56.282Z,9.50
2017-12-27T14:58:24.210Z,9.61
2017-12-27T15:00:51.708Z,9.56
2017-12-27T15:03:19.209Z,9.39
2017-12-27T15:05:47.165Z,9.31
2017-12-27T15:08:14.945Z,9.55
2017-12-27T15:10:42.486Z,9.61
2017-12-27T15:13:10.280Z,9.18
2017-12-27T15:15:37.840Z,9.35
2017-12-27T15:18:05.501Z,9.31
2017-12-27T15:20:33.468Z,9.29
2017-12-27T15:23:01.009Z,9.36
2017-12-27T15:25:28.509Z,9.27
2017-12-27T15:27:56.105Z,9.28
2017-12-27T15:30:23.607Z,9.40
2017-12-27T15:32:51.100Z,9.29
2017-12-27T15:35:18.824Z,9.14
2017-12-27T15:37:46.375Z,9.43
2017-12-27T15:40:13.855Z,9.34
2017-12-27T15:42:41.681Z,9.54
2017-12-27T15:45:09.185Z,9.46
2017-12-27T15:47:36.697Z,9.58
2017-12-27T15:50:04.352Z,9.55
2017-12-27T15:52:31.852Z,9.49
2017-12-27T15:54:59.352Z,9.57
2017-12-27T15:57:27.130Z,9.56
2017-12-27T15:59:54.641Z,9.57
2017-12-27T16:02:22.150Z,9.58
2017-12-27T16:04:50.293Z,9.63
2017-12-27T16:07:17.820Z,9.57
2017-12-27T16:09:45.340Z,9.50
2017-12-27T16:12:12.925Z,9.65
2017-12-27T16:14:40.420Z,9.66
2017-12-27T16:17:07.940Z,9.64
2017-12-27T16:19:35.602Z,9.61
2017-12-27T16:22:03.161Z,9.60
2017-12-27T16:24:30.670Z,9.59
2017-12-27T16:26:58.381Z,9.45
2017-12-27T16:29:25.906Z,9.37
2017-12-27T16:31:53.420Z,9.36
2017-12-27T16:34:21.241Z,9.38
2017-12-27T16:36:48.753Z,9.49
2017-12-27T16:39:16.260Z,9.23
2017-12-27T16:41:43.940Z,9.12
2017-12-27T16:44:11.468Z,9.28
2017-12-27T16:46:39.161Z,9.32
2017-12-27T16:49:07.222Z,9.27
2017-12-27T16:51:34.997Z,9.45
2017-12-27T16:54:02.862Z,9.30
2017-12-27T16:56:31.980Z,9.32
2017-12-27T16:58:59.517Z,9.16
2017-12-27T17:01:27.084Z,9.19
2017-12-27T17:03:54.619Z,9.17
2017-12-27T17:06:22.238Z,9.33
2017-12-27T17:08:49.854Z,9.24
2017-12-27T17:11:17.724Z,9.27
2017-12-27T17:13:45.291Z,9.23
2017-12-27T17:16:13.095Z,9.16
2017-12-27T17:18:40.829Z,9.19
2017-12-27T17:21:08.365Z,9.17
2017-12-27T17:23:35.924Z,9.23
2017-12-27T17:26:03.893Z,9.15
2017-12-27T17:28:31.657Z,9.37
2017-12-27T17:30:59.318Z,9.36
2017-12-27T17:33:27.236Z,9.01
2017-12-27T17:35:54.743Z,9.19
2017-12-27T17:38:22.406Z,9.28
2017-12-27T17:40:50.005Z,9.02
2017-12-27T17:43:17.535Z,9.14
2017-12-27T17:45:45.098Z,8.99
2017-12-27T17:48:12.929Z,9.20
2017-12-27T17:50:40.688Z,9.23
2017-12-27T17:53:08.373Z,9.01
2017-12-27T17:55:35.933Z,8.73
2017-12-27T17:58:03.434Z,8.91
2017-12-27T18:00:31.141Z,8.96
2017-12-27T18:02:59.018Z,8.83
2017-12-27T18:05:26.580Z,8.64
2017-12-27T18:07:54.089Z,8.59
2017-12-27T18:10:21.749Z,8.67
2017-12-27T18:12:49.459Z,8.75
2017-12-27T18:15:16.968Z,8.74
2017-12-27T18:17:44.783Z,8.49
2017-12-27T18:20:12.282Z,8.63
2017-12-27T18:22:39.776Z,8.74
2017-12-27T18:25:07.689Z,8.72
2017-12-27T18:27:35.325Z,8.61
2017-12-27T18:30:02.889Z,8.65
2017-12-27T18:32:31.380Z,8.79
2017-12-27T18:34:58.957Z,8.58
2017-12-27T18:37:26.459Z,8.39
2017-12-27T18:39:54.100Z,8.32
2017-12-27T18:42:21.603Z,8.47
2017-12-27T18:44:49.136Z,8.45
2017-12-27T18:47:16.686Z,8.44
2017-12-27T18:49:44.206Z,8.02
2017-12-27T18:52:11.710Z,8.02
2017-12-27T18:54:39.399Z,8.07
2017-12-27T18:57:06.905Z,7.93
2017-12-27T18:59:34.412Z,7.92
2017-12-27T19:02:01.956Z,8.03
2017-12-27T19:04:29.462Z,7.91
2017-12-27T19:06:57.141Z,8.03
2017-12-27T19:09:24.842Z,8.04
2017-12-27T19:11:52.364Z,8.17
2017-12-27T19:14:19.913Z,7.72
2017-12-27T19:16:47.744Z,7.84
2017-12-27T19:19:15.290Z,7.59
2017-12-27T19:21:42.800Z,7.81
2017-12-27T19:24:10.388Z,7.40
2017-12-27T19:26:38.073Z,7.40
2017-12-27T19:29:05.632Z,7.43
2017-12-27T19:31:33.601Z,7.43
2017-12-27T19:34:01.224Z,7.61
2017-12-27T19:36:28.831Z,7.63
2017-12-27T19:38:56.750Z,7.87
2017-12-27T19:41:24.275Z,7.73
2017-12-27T19:43:51.885Z,7.54
2017-12-27T19:46:19.735Z,7.84
2017-12-27T19:48:47.296Z,7.58
2017-12-27T19:51:14.809Z,7.75
2017-12-27T19:53:42.963Z,7.46
2017-12-27T19:56:10.828Z,7.61
2017-12-27T19:58:38.408Z,7.00
2017-12-27T20:01:06.050Z,7.35
2017-12-27T20:03:34.533Z,7.29
2017-12-27T20:06:02.132Z,7.26
2017-12-27T20:08:29.831Z,7.19
2017-12-27T20:10:57.524Z,7.55
2017-12-27T20:13:25.178Z,7.56
2017-12-27T20:15:53.043Z,7.46
2017-12-27T20:18:20.575Z,7.65
2017-12-27T20:20:48.190Z,7.62
2017-12-27T20:23:16.027Z,7.89
2017-12-27T20:25:43.790Z,7.88
2017-12-27T20:28:11.863Z,7.88
2017-12-27T20:30:39.793Z,7.85
2017-12-27T20:33:08.413Z,7.97
2017-12-27T20:35:36.279Z,7.94
2017-12-27T20:38:04.145Z,7.95
2017-12-27T20:40:31.800Z,7.93
2017-12-27T20:42:59.571Z,7.84
2017-12-27T20:45:27.436Z,7.92
2017-12-27T20:47:55.574Z,7.96
2017-12-27T20:50:23.374Z,7.82
2017-12-27T20:52:51.343Z,7.95
2017-12-27T20:55:19.097Z,7.93
2017-12-27T20:57:46.733Z,8.12
2017-12-27T21:00:14.738Z,8.18
2017-12-27T21:02:42.806Z,8.07
2017-12-27T21:05:10.570Z,8.29
2017-12-27T21:07:38.541Z,8.09
2017-12-27T21:10:06.201Z,7.67
2017-12-27T21:12:34.017Z,7.74
2017-12-27T21:15:02.040Z,7.55
2017-12-27T21:17:29.697Z,7.59
2017-12-27T21:19:57.461Z,7.72
2017-12-27T21:22:25.357Z,7.64
2017-12-27T21:24:53.401Z,7.69
2017-12-27T21:27:21.265Z,7.67
2017-12-27T21:29:49.438Z,7.29
2017-12-27T21:32:17.098Z,7.36
2017-12-27T21:34:44.867Z,7.46
2017-12-27T21:37:12.831Z,7.40
2017-12-27T21:39:40.390Z,7.23
2017-12-27T21:42:07.950Z,7.19
2017-12-27T21:44:36.029Z,7.30
2017-12-27T21:47:03.786Z,7.54
2017-12-27T21:49:37.263Z,7.42
2017-12-27T21:52:04.946Z,7.37
2017-12-27T21:54:32.606Z,7.43
2017-12-27T21:57:00.390Z,7.39
2017-12-27T21:59:33.753Z,7.52
2017-12-27T22:02:01.795Z,7.54
2017-12-27T22:04:29.598Z,7.27
2017-12-27T22:06:57.162Z,7.19
2017-12-27T22:09:24.909Z,7.12
2017-12-27T22:11:52.478Z,7.33
2017-12-27T22:14:20.232Z,7.21
2017-12-27T22:16:47.798Z,7.34
2017-12-27T22:19:15.303Z,6.97
2017-12-27T22:21:43.031Z,7.17
2017-12-27T22:24:11.097Z,7.19
2017-12-27T22:26:38.763Z,7.07
2017-12-27T22:29:06.293Z,7.07
2017-12-27T22:31:33.869Z,7.11
2017-12-27T22:34:01.397Z,7.22
2017-12-27T22:36:28.899Z,7.41
2017-12-27T22:38:56.868Z,7.39
2017-12-27T22:41:24.538Z,7.26
2017-12-27T22:43:52.694Z,7.23
2017-12-27T22:46:20.328Z,7.14
2017-12-27T22:48:47.824Z,7.06
2017-12-27T22:51:15.324Z,7.21
2017-12-27T22:53:43.312Z,7.02
2017-12-27T22:56:10.881Z,7.06
2017-12-27T22:58:38.383Z,6.73
2017-12-27T23:01:06.119Z,6.72
2017-12-27T23:03:33.729Z,6.77
2017-12-27T23:06:01.274Z,6.77
2017-12-27T23:08:28.798Z,6.50
2017-12-27T23:10:56.296Z,6.78
2017-12-27T23:13:23.812Z,6.64
2017-12-27T23:15:51.575Z,6.74
2017-12-27T23:18:19.072Z,6.49
2017-12-27T23:20:46.569Z,6.45
2017-12-27T23:23:14.253Z,6.84
2017-12-27T23:25:42.714Z,6.69
2017-12-27T23:28:10.209Z,6.60
2017-12-27T23:30:37.762Z,6.76
2017-12-27T23:33:05.308Z,6.65
2017-12-27T23:35:32.850Z,6.66
2017-12-27T23:38:00.531Z,6.53
2017-12-27T23:40:28.034Z,6.31
2017-12-27T23:42:55.541Z,6.14
2017-12-27T23:45:23.101Z,6.08
2017-12-27T23:47:50.592Z,6.14
2017-12-27T23:50:18.118Z,6.18
2017-12-27T23:52:45.677Z,5.87
2017-12-27T23:55:13.172Z,5.90
2017-12-27T23:57:40.796Z,5.87
